KSMOKSBA

Guest
Details From KSMO - Santa Monica Muni
To KSBA - Santa Barbara Mun
Flight Number -
Tags Generated
Created
Modified
Stats Distance 73 nm / 136 km
Max Altitude 0 ft / 0 m
Waypoints 2
Social Downloads 1
Likes 0
Share VATSIM

Download

Looking for another format? Having issues loading an existing format? Contact us
Advertisement - Login to hide

Notes

Generated

Route

KSMO KSBA

ID Type Via Altitude Latitude Longitude Leg Dist Tot Dist Heading (true) Name
O KSMO APT - 0 ft / 0 m 34.01098˚ -118.45709˚ - 0 nm - -
O KSBA APT - 0 ft / 0 m 34.43077˚ -119.84036˚ 73 nm 73 nm 291° / 290° Santa Barbara Mun

Altitude Profile

Advertisement - Login to hide

KSMO

Details ICAO KSMO (SMO)
Name SANTA MONICA MUNI
Region United States
Timezone America/Los_Angeles (UTC-8.0)
Stats Elevation 177 ft / 54 m (AMSL)
Location 34.015847° -118.451329°
Runways 1
Magnetic Variation 12.028° E

METAR

KSMO 182151Z AUTO 22008KT 10SM CLR 20/M01 A3012 RMK AO2 SLP198 T02001011

Decode

TAF

TAF KSMO 181731Z 1818/1918 04004KT P6SM SKC FM182000 24008KT P6SM SKC FM190300 VRB03KT P6SM SKC

Decode

Departure Runways

ID Width Length Bearing (true) Bearing (mag) Surface Threshold Offset Overrun Length
03 151 ft / 46 m 4,978 ft / 1,517 m 44.45° 32.42° Asphalt 0 ft / 0 m 0 ft / 0 m
21 151 ft / 46 m 4,978 ft / 1,517 m 224.46° 212.43° Asphalt 0 ft / 0 m 0 ft / 0 m

KSBA

Details ICAO KSBA (SBA)
Name Santa Barbara Mun
Region United States
Timezone America/Los_Angeles (UTC-8.0)
Stats Elevation 13 ft / 4 m (AMSL)
Location 34.425961° -119.840724°
Runways 3
Magnetic Variation 12.371° E

METAR

KSBA 182153Z 24005KT 10SM CLR 19/M02 A3013 RMK AO2 SLP201 T01941017

Decode

TAF

TAF KSBA 181731Z 1818/1918 00000KT P6SM SKC FM181900 23008KT P6SM SKC FM190300 VRB03KT P6SM SKC

Decode

Destination Runways

ID Width Length Bearing (true) Bearing (mag) Surface Threshold Offset Overrun Length
07 151 ft / 46 m 6,047 ft / 1,843 m 88.54° 76.17° Asphalt 0 ft / 0 m 0 ft / 0 m
15L 75 ft / 23 m 4,182 ft / 1,275 m 165.71° 153.34° Asphalt 217 ft / 66 m 0 ft / 0 m
15R 98 ft / 30 m 4,186 ft / 1,276 m 165.71° 153.34° Asphalt 0 ft / 0 m 0 ft / 0 m
25 151 ft / 46 m 6,047 ft / 1,843 m 268.55° 256.18° Asphalt 0 ft / 0 m 0 ft / 0 m
33L 98 ft / 30 m 4,186 ft / 1,276 m 345.71° 333.34° Asphalt 0 ft / 0 m 0 ft / 0 m
33R 75 ft / 23 m 4,182 ft / 1,275 m 345.72° 333.35° Asphalt 0 ft / 0 m 0 ft / 0 m

Approach Navaids

Runway Type Ident Frequency Range Bearing (true) Bearing (mag) Slope Elevation
07 Localiser ISBA 110.30 MHz 18 nm / 33 km 88.51° 76.14° - 16 ft / 5 m (AMSL)
07 Glidescope ISBA 110.30 MHz 10 nm / 19 km 89.00° 76.63° 3.00° 13 ft / 4 m (AMSL)
07 DME ISBA 110.30 MHz 18 nm / 33 km - - - 29 ft / 9 m (AMSL)

Popular Alternatives